Terminal Aerodrome Forecast
Issued by NWS San Angelo, TX

Home | Current Version | Previous Version | Text Only | Print | Product List | Glossary On
Versions: 1 2 3 4 5 6 7 8 9 10 11 12 13 14 15 16 17 18 19 20 21 22
000
FTUS44 KSJT 270645 AAE
TAFSJT
TAF AMD
KSJT 270645Z 2707/2806 31015G25KT 5SM -TSRA BR OVC030CB
      TEMPO 2707/2708 VRB45G55KT 2SM +TSRAGS OVC025CB
     FM271000 21011G18KT P6SM BKN250
     FM271600 23015G23KT P6SM SKC
     FM272300 23007KT P6SM SKC=

USA.gov is the U.S. government's official web portal to all federal, state and local government web resources and services.